Soldotna, Alaska
Current Conditions -  °F | °C
As of 10:36 PM on Friday 28 Nov 2014 (Local Time) from PASX Reporting Station
Overcast Overcast  
Wind Chill: 23°   Ceiling: 4000
Heat Index: 23°   Visibility: 5mi
Dew Point: 19°   Wind: 3mph
Humidity: 86%   Direction: 70°ENE
Pressure: 30.15"   Gusts: NA
Location:  60.49°N, 151.06°W
Report Text: PASX 290736Z AUTO 07003KT 5SM OVC040 M05/M07 A3015 RMK AO1
Loading
Personal Weather Stations






























Interactive Weather Map New forecast layout! Learn more

10-Day Weather Forecast

Advertisements
Track Severe Weather on mobile